Weston, Colorado
Current Conditions -  °F | °C
As of 11:53 PM on Thursday 30 Oct 2014 (Local Time) from KRTN Reporting Station
Clear Clear  
Wind Chill: 42°   Ceiling: Unl
Heat Index: 42°   Visibility: 10mi
Dew Point: 23°   Wind: 3mph
Humidity: 47%   Direction: 210°SSW
Pressure: 30.45"   Gusts: NA
Location:  37.14°N, 104.85°W
Report Text: KRTN 310553Z AUTO 21003KT 10SM CLR 06/M05 A3045 RMK AO2 SLP266 T00561050 10144 20033 51012
Loading
Personal Weather Stations






























Interactive Weather Map
Tropical Storm Tracking
New forecast layout! Learn more

10-Day Weather Forecast

Advertisements
Track Severe Weather on mobile